Terminal Aerodrome Forecast
Issued by NWS

Home | Current Version | Previous Version | Text Only | Print | Product List | Glossary On
Versions: 1 2 3 4 5 6 7 8 9 10 11 12
000
FTUS45 KRIW 231126
TAFWRL
TAF
KWRL 231126Z 2312/2412 35011KT P6SM VCSH OVC024
     FM231400 34020G32KT 5SM -SN BLSN OVC020
     FM240100 32008KT P6SM VCSH SCT020 OVC030
     FM240600 VRB06KT P6SM SCT030 BKN045=

USA.gov is the U.S. government's official web portal to all federal, state and local government web resources and services.